createdAt,value
2018-12-07T06:58:15.358Z,10.70
2018-12-07T06:59:16.121Z,19.90
2018-12-07T07:00:15.410Z,19.20
2018-12-07T07:01:15.404Z,19.80
2018-12-07T07:02:15.362Z,19.50
2018-12-07T07:03:15.355Z,19.80
2018-12-07T07:04:15.382Z,17.90
2018-12-07T07:05:15.477Z,17.80
2018-12-07T07:06:15.496Z,18.00
2018-12-07T07:07:15.383Z,17.50
2018-12-07T07:08:15.437Z,18.40
2018-12-07T07:09:15.505Z,18.40
2018-12-07T07:10:15.399Z,18.60
2018-12-07T07:11:15.459Z,18.50
2018-12-07T07:12:15.405Z,18.50
2018-12-07T07:13:15.459Z,18.30
2018-12-07T07:14:15.454Z,18.10
2018-12-07T07:15:15.448Z,19.60
2018-12-07T07:16:22.902Z,19.30
2018-12-07T07:17:15.437Z,19.70
2018-12-07T07:18:15.460Z,19.40
2018-12-07T07:19:15.513Z,19.00
2018-12-07T07:20:15.512Z,19.00
2018-12-07T07:21:15.641Z,20.20
2018-12-07T07:22:15.736Z,19.80
2018-12-07T07:23:15.502Z,19.20
2018-12-07T07:24:15.493Z,19.10
2018-12-07T07:25:15.515Z,21.60
2018-12-07T07:26:15.510Z,20.00
2018-12-07T07:27:15.520Z,18.10
2018-12-07T07:28:15.524Z,19.50
2018-12-07T07:29:15.560Z,19.30
2018-12-07T07:30:15.524Z,19.10
2018-12-07T07:31:15.636Z,19.00
2018-12-07T07:32:15.570Z,19.30
2018-12-07T07:33:15.745Z,18.80
2018-12-07T07:34:15.686Z,19.00
2018-12-07T07:35:15.577Z,19.30
2018-12-07T07:36:15.575Z,18.80
2018-12-07T07:37:15.599Z,18.80
2018-12-07T07:38:15.606Z,18.40
2018-12-07T07:39:16.611Z,18.40
2018-12-07T07:40:15.698Z,18.90
2018-12-07T07:41:15.612Z,18.90
2018-12-07T07:42:15.614Z,18.90
2018-12-07T07:43:15.712Z,18.50
2018-12-07T07:44:15.788Z,19.40
2018-12-07T07:45:16.009Z,18.00
2018-12-07T07:46:15.696Z,17.90
2018-12-07T07:47:15.686Z,18.10
2018-12-07T07:48:15.667Z,18.50
2018-12-07T07:49:15.672Z,17.20
2018-12-07T07:50:15.684Z,17.90
2018-12-07T07:51:15.731Z,18.70
2018-12-07T07:52:15.703Z,19.60
2018-12-07T07:53:15.729Z,19.30
2018-12-07T07:54:15.733Z,18.50
2018-12-07T07:55:15.779Z,18.40
2018-12-07T07:56:15.806Z,18.60
2018-12-07T07:57:16.290Z,19.10
2018-12-07T07:58:15.743Z,18.10
2018-12-07T07:59:15.807Z,18.30
2018-12-07T08:00:16.622Z,18.80
2018-12-07T08:01:15.755Z,17.80
2018-12-07T08:02:16.134Z,18.10
2018-12-07T08:03:15.797Z,17.70
2018-12-07T08:04:15.823Z,18.30
2018-12-07T08:05:15.780Z,17.70
2018-12-07T08:06:15.866Z,17.50
2018-12-07T08:07:15.846Z,18.00
2018-12-07T08:08:15.843Z,17.70
2018-12-07T08:09:15.815Z,17.00
2018-12-07T08:10:15.891Z,17.00
2018-12-07T08:11:15.871Z,17.40
2018-12-07T08:12:15.862Z,17.00
2018-12-07T08:13:15.882Z,17.20
2018-12-07T08:14:15.895Z,16.90
2018-12-07T08:15:15.858Z,17.20
2018-12-07T08:16:15.863Z,17.40
2018-12-07T08:17:15.889Z,16.90
2018-12-07T08:18:15.917Z,16.70
2018-12-07T08:19:15.923Z,17.30
2018-12-07T08:20:15.927Z,17.50
2018-12-07T08:21:15.926Z,17.20
2018-12-07T08:22:15.963Z,17.30
2018-12-07T08:23:15.954Z,17.10
2018-12-07T08:24:16.050Z,16.60
2018-12-07T08:25:15.945Z,16.20
2018-12-07T08:26:15.934Z,17.20
2018-12-07T08:27:16.602Z,15.60
2018-12-07T08:28:16.006Z,15.90
2018-12-07T08:29:15.988Z,16.20
2018-12-07T08:30:16.002Z,16.00
2018-12-07T08:31:15.970Z,16.90
2018-12-07T08:32:16.014Z,16.00
2018-12-07T08:33:16.104Z,16.40
2018-12-07T08:34:16.019Z,16.40
2018-12-07T08:35:16.025Z,15.70
2018-12-07T08:36:16.028Z,16.40
2018-12-07T08:37:16.030Z,15.10
2018-12-07T08:38:16.098Z,15.70
2018-12-07T08:39:16.123Z,15.90
2018-12-07T08:40:16.037Z,14.90
2018-12-07T08:41:16.058Z,15.20
2018-12-07T08:42:16.073Z,15.80
2018-12-07T08:43:16.681Z,16.80
2018-12-07T08:44:16.138Z,15.00
2018-12-07T08:45:16.092Z,14.70
2018-12-07T08:46:16.098Z,14.00
2018-12-07T08:47:16.100Z,14.80
2018-12-07T08:48:16.104Z,14.60
2018-12-07T08:49:16.140Z,14.30
2018-12-07T08:50:16.271Z,15.10
2018-12-07T08:51:16.182Z,14.60
2018-12-07T08:52:16.141Z,13.70
2018-12-07T08:53:16.173Z,14.20
2018-12-07T08:54:17.101Z,14.90
2018-12-07T08:55:16.257Z,14.60
2018-12-07T08:56:16.171Z,14.20
2018-12-07T08:57:16.206Z,13.90
2018-12-07T08:58:16.225Z,13.60
2018-12-07T08:59:16.195Z,14.30
2018-12-07T09:00:16.279Z,13.70
2018-12-07T09:01:16.241Z,13.80
2018-12-07T09:02:16.208Z,13.40
2018-12-07T09:03:16.252Z,13.00
2018-12-07T09:04:16.253Z,13.90
2018-12-07T09:05:16.361Z,12.90
2018-12-07T09:06:16.231Z,14.20
2018-12-07T09:07:17.720Z,13.60
2018-12-07T09:08:16.308Z,13.10
2018-12-07T09:09:16.291Z,13.10
2018-12-07T09:10:16.289Z,12.40
2018-12-07T09:11:16.312Z,12.80
2018-12-07T09:12:16.360Z,12.50
2018-12-07T09:13:16.362Z,13.10
2018-12-07T09:14:16.314Z,12.50
2018-12-07T09:15:16.531Z,12.60
2018-12-07T09:16:16.324Z,12.20
2018-12-07T09:17:16.462Z,12.80
2018-12-07T09:18:16.356Z,12.30
2018-12-07T09:19:16.424Z,13.40
2018-12-07T09:20:16.526Z,13.20
2018-12-07T09:21:16.371Z,12.50
2018-12-07T09:22:16.378Z,12.50
2018-12-07T09:23:16.402Z,15.10
2018-12-07T09:24:16.407Z,17.90
2018-12-07T09:25:16.413Z,17.30
2018-12-07T09:26:16.412Z,22.60
2018-12-07T09:27:16.412Z,14.20
2018-12-07T09:28:16.527Z,17.90
2018-12-07T09:29:16.446Z,18.70
2018-12-07T09:30:16.441Z,13.40
2018-12-07T09:31:16.513Z,11.80
2018-12-07T09:32:16.450Z,12.40
2018-12-07T09:33:16.491Z,11.30
2018-12-07T09:34:16.507Z,12.50
2018-12-07T09:35:16.466Z,12.20
2018-12-07T09:36:16.484Z,11.40
2018-12-07T09:37:17.174Z,13.70
2018-12-07T09:38:16.497Z,11.90
2018-12-07T09:39:16.644Z,10.60
2018-12-07T09:40:16.551Z,12.00
2018-12-07T09:41:16.516Z,13.00
2018-12-07T09:42:17.165Z,12.70
2018-12-07T09:43:16.562Z,12.80
2018-12-07T09:44:16.626Z,11.60
2018-12-07T09:45:16.630Z,10.80
2018-12-07T09:46:17.164Z,10.00
2018-12-07T09:47:16.570Z,9.70
2018-12-07T09:48:16.636Z,9.40
2018-12-07T09:49:16.658Z,9.90
2018-12-07T09:50:16.669Z,8.90
2018-12-07T09:51:16.615Z,11.40
2018-12-07T09:52:16.609Z,12.10
2018-12-07T09:53:16.740Z,9.60
2018-12-07T09:54:16.666Z,8.90
2018-12-07T09:55:16.659Z,9.20
2018-12-07T09:56:16.691Z,8.90
2018-12-07T09:57:16.671Z,8.30
2018-12-07T09:58:16.680Z,8.00
2018-12-07T09:59:16.663Z,8.30
2018-12-07T10:00:17.613Z,7.50
2018-12-07T10:01:16.686Z,8.20
2018-12-07T10:02:16.798Z,7.30
2018-12-07T10:03:16.702Z,8.00
2018-12-07T10:04:16.714Z,7.00
2018-12-07T10:05:17.589Z,7.60
2018-12-07T10:06:16.722Z,7.00
2018-12-07T10:07:16.836Z,7.10
2018-12-07T10:08:16.804Z,6.50
2018-12-07T10:09:16.759Z,7.20
2018-12-07T10:10:16.743Z,7.20
2018-12-07T10:11:16.795Z,7.10
2018-12-07T10:12:16.768Z,6.30
2018-12-07T10:13:16.769Z,7.10
2018-12-07T10:14:16.780Z,6.60
2018-12-07T10:15:16.873Z,6.10
2018-12-07T10:16:16.932Z,6.20
2018-12-07T10:17:16.803Z,7.00
2018-12-07T10:18:16.809Z,7.30
2018-12-07T10:19:16.896Z,5.80
2018-12-07T10:20:16.819Z,5.80
2018-12-07T10:21:16.871Z,5.90
2018-12-07T10:22:16.841Z,5.80
2018-12-07T10:23:16.877Z,8.10
2018-12-07T10:24:16.864Z,9.90
2018-12-07T10:25:16.910Z,8.70
2018-12-07T10:26:16.893Z,8.60
2018-12-07T10:27:16.983Z,7.10
2018-12-07T10:28:16.924Z,5.80
2018-12-07T10:29:16.919Z,6.30
2018-12-07T10:30:17.152Z,5.80
2018-12-07T10:31:16.932Z,5.60
2018-12-07T10:32:16.943Z,5.70
2018-12-07T10:33:16.947Z,5.70
2018-12-07T10:34:16.963Z,5.60
2018-12-07T10:35:16.982Z,6.00
2018-12-07T10:36:17.130Z,6.50
2018-12-07T10:37:17.106Z,5.80
2018-12-07T10:38:16.967Z,5.70
2018-12-07T10:39:16.998Z,4.90
2018-12-07T10:40:16.999Z,5.50
2018-12-07T10:41:17.059Z,5.10
2018-12-07T10:42:17.015Z,5.30
2018-12-07T10:43:17.082Z,10.60
2018-12-07T10:44:17.033Z,9.30
2018-12-07T10:45:17.074Z,5.60
2018-12-07T10:46:17.093Z,5.10
2018-12-07T10:47:17.040Z,5.20
2018-12-07T10:48:17.208Z,4.80
2018-12-07T10:49:17.206Z,5.40
2018-12-07T10:50:17.120Z,5.00
2018-12-07T10:51:17.220Z,4.70
2018-12-07T10:52:17.135Z,4.90
2018-12-07T10:53:17.153Z,4.80
2018-12-07T10:54:17.157Z,5.20
2018-12-07T10:55:17.134Z,4.90
2018-12-07T10:56:17.230Z,5.30
2018-12-07T10:57:17.147Z,5.40
2018-12-07T10:58:17.154Z,5.30
2018-12-07T10:59:17.188Z,4.80
2018-12-07T11:00:22.698Z,5.00
2018-12-07T11:01:17.172Z,4.80
2018-12-07T11:02:17.184Z,5.10
2018-12-07T11:03:17.193Z,9.60
2018-12-07T11:04:17.405Z,5.70
2018-12-07T11:05:17.215Z,4.30
2018-12-07T11:06:17.205Z,5.00
2018-12-07T11:07:17.221Z,5.30
2018-12-07T11:08:17.260Z,4.50
2018-12-07T11:09:17.346Z,4.40
2018-12-07T11:10:17.297Z,3.90
2018-12-07T11:11:17.273Z,4.80
2018-12-07T11:12:17.333Z,4.70
2018-12-07T11:13:17.313Z,4.30
2018-12-07T11:14:17.319Z,4.20
2018-12-07T11:15:17.344Z,4.10
2018-12-07T11:16:17.387Z,3.40
2018-12-07T11:17:17.325Z,4.40
2018-12-07T11:18:17.334Z,4.30
2018-12-07T11:19:17.322Z,4.40
2018-12-07T11:20:17.348Z,5.60
2018-12-07T11:21:17.338Z,4.40
2018-12-07T11:22:17.446Z,6.10
2018-12-07T11:23:17.451Z,4.90
2018-12-07T11:24:17.470Z,4.20
2018-12-07T11:25:17.398Z,4.70
2018-12-07T11:26:17.559Z,4.70
2018-12-07T11:27:17.482Z,4.80
2018-12-07T11:28:17.470Z,3.80
2018-12-07T11:29:17.554Z,4.80
2018-12-07T11:30:17.435Z,4.30
2018-12-07T11:31:17.521Z,5.00
2018-12-07T11:32:17.484Z,3.90
2018-12-07T11:33:17.440Z,4.00
2018-12-07T11:34:17.566Z,7.10
2018-12-07T11:35:17.667Z,3.80
2018-12-07T11:36:17.517Z,3.60
2018-12-07T11:37:17.587Z,4.10
2018-12-07T11:38:17.571Z,4.00
2018-12-07T11:39:17.578Z,4.20
2018-12-07T11:40:17.535Z,3.70
2018-12-07T11:41:17.509Z,4.00
2018-12-07T11:42:17.569Z,4.00
2018-12-07T11:43:17.566Z,3.70
2018-12-07T11:44:17.583Z,3.90
2018-12-07T11:45:17.580Z,3.80
2018-12-07T11:46:17.662Z,3.70
2018-12-07T11:47:17.557Z,3.50
2018-12-07T11:48:17.597Z,3.30
2018-12-07T11:49:17.579Z,3.30
2018-12-07T11:50:17.570Z,3.10
2018-12-07T11:51:18.153Z,3.10
2018-12-07T11:52:17.648Z,3.30
2018-12-07T11:53:17.707Z,3.50
2018-12-07T11:54:17.610Z,3.20
2018-12-07T11:55:18.683Z,3.30
2018-12-07T11:56:17.749Z,3.10
2018-12-07T11:57:17.826Z,3.30
2018-12-07T11:58:17.672Z,2.90
2018-12-07T11:59:17.664Z,3.20
2018-12-07T12:00:17.771Z,3.00
2018-12-07T12:01:17.686Z,2.80
2018-12-07T12:02:17.699Z,3.20
2018-12-07T12:03:17.772Z,3.30
2018-12-07T12:04:17.784Z,3.30
2018-12-07T12:05:17.732Z,3.10
2018-12-07T12:06:17.738Z,3.00
2018-12-07T12:07:17.749Z,3.30
2018-12-07T12:08:17.959Z,3.40
2018-12-07T12:09:17.755Z,3.20
2018-12-07T12:10:17.794Z,3.10
2018-12-07T12:11:17.772Z,3.40
2018-12-07T12:12:17.778Z,3.60
2018-12-07T12:13:17.782Z,3.30
2018-12-07T12:14:17.823Z,3.40
2018-12-07T12:15:17.793Z,3.10
2018-12-07T12:16:17.803Z,3.30
2018-12-07T12:17:17.945Z,3.60
2018-12-07T12:18:17.828Z,3.80
2018-12-07T12:19:17.969Z,3.20
2018-12-07T12:20:17.936Z,3.30
2018-12-07T12:21:17.846Z,3.60
2018-12-07T12:22:17.858Z,3.80
2018-12-07T12:23:17.875Z,3.50
2018-12-07T12:24:17.888Z,3.80
2018-12-07T12:25:17.999Z,3.60
2018-12-07T12:26:18.016Z,4.00
2018-12-07T12:27:17.920Z,3.50
2018-12-07T12:28:17.916Z,3.20
2018-12-07T12:29:17.936Z,3.30
2018-12-07T12:30:18.014Z,3.90
2018-12-07T12:31:17.951Z,3.80
2018-12-07T12:32:17.960Z,3.50
2018-12-07T12:33:18.026Z,3.80
2018-12-07T12:34:18.018Z,4.20
2018-12-07T12:35:17.982Z,4.70
2018-12-07T12:36:18.126Z,4.10
2018-12-07T12:37:17.978Z,4.20
2018-12-07T12:38:17.985Z,4.10
2018-12-07T12:39:17.991Z,4.10
2018-12-07T12:40:18.041Z,4.30
2018-12-07T12:41:18.160Z,4.30
2018-12-07T12:42:18.048Z,6.80
2018-12-07T12:43:18.047Z,4.30
2018-12-07T12:44:18.189Z,4.50
2018-12-07T12:45:18.041Z,4.90
2018-12-07T12:46:18.049Z,5.80
2018-12-07T12:47:18.274Z,4.50
2018-12-07T12:48:18.167Z,4.80
2018-12-07T12:49:18.076Z,5.00
2018-12-07T12:50:18.076Z,6.20
2018-12-07T12:51:18.141Z,5.60
2018-12-07T12:52:18.175Z,5.30
2018-12-07T12:53:18.210Z,4.60
2018-12-07T12:54:18.108Z,4.30
2018-12-07T12:55:18.138Z,4.60
2018-12-07T12:56:18.150Z,4.20
2018-12-07T12:57:18.151Z,4.30
2018-12-07T12:58:18.173Z,5.00
2018-12-07T12:59:18.314Z,5.10
2018-12-07T13:00:18.199Z,4.70
2018-12-07T13:01:18.199Z,5.00
2018-12-07T13:02:18.211Z,5.30
2018-12-07T13:03:18.275Z,4.80
2018-12-07T13:04:18.205Z,5.60
2018-12-07T13:05:18.199Z,5.20
2018-12-07T13:06:18.234Z,5.50
2018-12-07T13:07:18.252Z,5.10
2018-12-07T13:08:18.275Z,5.60
2018-12-07T13:09:18.275Z,5.20
2018-12-07T13:10:18.281Z,5.10
2018-12-07T13:11:18.407Z,5.00
2018-12-07T13:12:18.254Z,5.20
2018-12-07T13:13:18.284Z,5.30
2018-12-07T13:14:18.433Z,5.30
2018-12-07T13:15:18.352Z,5.20
2018-12-07T13:16:18.307Z,5.30
2018-12-07T13:17:18.311Z,5.00
2018-12-07T13:18:18.351Z,5.00
2018-12-07T13:19:18.656Z,4.80
2018-12-07T13:20:18.353Z,4.60
2018-12-07T13:21:18.353Z,4.80
2018-12-07T13:22:18.394Z,4.40
2018-12-07T13:23:18.530Z,5.00
2018-12-07T13:24:18.412Z,4.60
2018-12-07T13:25:18.409Z,4.80
2018-12-07T13:26:18.409Z,4.60
2018-12-07T13:27:18.534Z,4.80
2018-12-07T13:28:18.397Z,5.00
2018-12-07T13:29:18.387Z,4.50
2018-12-07T13:30:18.690Z,5.00
2018-12-07T13:31:19.131Z,5.70
2018-12-07T13:32:18.487Z,5.10
2018-12-07T13:33:18.437Z,5.50
2018-12-07T13:34:18.460Z,5.30
2018-12-07T13:35:18.450Z,5.50
2018-12-07T13:36:18.483Z,5.20
2018-12-07T13:37:18.475Z,5.50
2018-12-07T13:38:18.509Z,5.40
2018-12-07T13:39:18.478Z,5.10
2018-12-07T13:40:18.710Z,5.30
2018-12-07T13:41:18.649Z,5.80
2018-12-07T13:42:18.627Z,5.70
2018-12-07T13:43:18.549Z,5.50
2018-12-07T13:44:18.835Z,5.40
2018-12-07T13:45:18.790Z,5.40
2018-12-07T13:46:18.707Z,4.90
2018-12-07T13:47:18.801Z,5.10
2018-12-07T13:48:18.869Z,5.10
2018-12-07T13:49:18.827Z,5.40
2018-12-07T13:50:18.712Z,5.50
2018-12-07T13:51:18.672Z,5.60
2018-12-07T13:52:18.664Z,5.70
2018-12-07T13:53:18.694Z,5.30
2018-12-07T13:54:18.850Z,5.60
2018-12-07T13:55:18.806Z,6.60
2018-12-07T13:56:18.877Z,6.70
2018-12-07T13:57:18.728Z,5.30
2018-12-07T13:58:18.993Z,5.00
2018-12-07T13:59:18.866Z,5.30
2018-12-07T14:00:18.928Z,5.50
2018-12-07T14:01:18.819Z,5.40
2018-12-07T14:02:19.720Z,5.30
2018-12-07T14:03:18.775Z,5.40
2018-12-07T14:04:18.787Z,5.20
2018-12-07T14:05:18.865Z,5.80
2018-12-07T14:06:18.779Z,6.20
2018-12-07T14:07:18.886Z,5.90
2018-12-07T14:08:18.852Z,5.00
2018-12-07T14:09:19.153Z,5.50
2018-12-07T14:10:18.841Z,5.50
2018-12-07T14:11:18.750Z,5.10
2018-12-07T14:12:18.801Z,5.60
2018-12-07T14:13:18.857Z,5.40
2018-12-07T14:14:18.917Z,5.90
2018-12-07T14:15:19.195Z,5.90
2018-12-07T14:16:19.035Z,5.90
2018-12-07T14:17:18.936Z,5.60
2018-12-07T14:18:18.855Z,5.10
2018-12-07T14:19:18.891Z,5.10
2018-12-07T14:20:18.874Z,5.10
2018-12-07T14:21:19.118Z,5.20
2018-12-07T14:22:18.953Z,4.70
2018-12-07T14:23:18.986Z,4.80
2018-12-07T14:24:18.859Z,5.10
2018-12-07T14:25:18.946Z,5.10
2018-12-07T14:26:18.989Z,4.90
2018-12-07T14:27:19.067Z,5.50
2018-12-07T14:28:18.935Z,5.80
2018-12-07T14:29:19.049Z,6.00
2018-12-07T14:30:18.893Z,5.70
2018-12-07T14:31:19.306Z,5.70
2018-12-07T14:32:19.014Z,6.50
2018-12-07T14:33:19.523Z,6.70
2018-12-07T14:34:19.215Z,7.00
2018-12-07T14:35:18.969Z,6.60
2018-12-07T14:36:19.017Z,6.10
2018-12-07T14:37:19.011Z,6.10
2018-12-07T14:38:19.182Z,5.70
2018-12-07T14:39:19.249Z,6.00
2018-12-07T14:40:19.085Z,7.10
2018-12-07T14:41:19.105Z,6.30
2018-12-07T14:42:19.090Z,5.80
2018-12-07T14:43:19.161Z,6.20
2018-12-07T14:44:19.164Z,5.50
2018-12-07T14:45:19.031Z,6.10
2018-12-07T14:46:19.080Z,6.00
2018-12-07T14:47:19.193Z,5.90
2018-12-07T14:48:19.945Z,6.20
2018-12-07T14:49:19.108Z,6.80
2018-12-07T14:50:19.126Z,7.10
2018-12-07T14:51:19.307Z,6.90
2018-12-07T14:52:19.177Z,6.70
2018-12-07T14:53:19.143Z,7.80
2018-12-07T14:54:19.206Z,7.00
2018-12-07T14:55:19.935Z,7.10
2018-12-07T14:56:20.882Z,7.50
2018-12-07T14:57:19.318Z,7.40
2018-12-07T14:58:19.121Z,8.60
2018-12-07T14:59:20.083Z,7.60
2018-12-07T15:00:19.265Z,7.80
2018-12-07T15:01:19.329Z,7.30
2018-12-07T15:02:19.211Z,7.40
2018-12-07T15:03:19.269Z,7.60
2018-12-07T15:04:19.297Z,7.40
2018-12-07T15:05:19.328Z,7.10
2018-12-07T15:06:19.372Z,5.90
2018-12-07T15:07:19.220Z,6.30
2018-12-07T15:08:19.417Z,6.40
2018-12-07T15:09:19.200Z,6.30
2018-12-07T15:10:19.237Z,6.60
2018-12-07T15:11:19.762Z,6.80
2018-12-07T15:12:19.227Z,6.80
2018-12-07T15:13:19.227Z,6.70
2018-12-07T15:14:19.284Z,7.80
2018-12-07T15:15:19.333Z,7.50
2018-12-07T15:16:19.317Z,6.90
2018-12-07T15:17:19.372Z,6.40
2018-12-07T15:18:19.657Z,6.10
2018-12-07T15:19:19.394Z,6.40
2018-12-07T15:20:19.389Z,6.70
2018-12-07T15:21:19.332Z,7.00
2018-12-07T15:22:19.660Z,6.80
2018-12-07T15:23:19.542Z,6.30
2018-12-07T15:24:19.363Z,6.50
2018-12-07T15:25:19.616Z,6.30
2018-12-07T15:26:20.221Z,6.20
2018-12-07T15:27:19.477Z,7.00
2018-12-07T15:28:19.628Z,6.80
2018-12-07T15:29:19.524Z,7.50
2018-12-07T15:30:19.605Z,7.00
2018-12-07T15:31:20.268Z,6.90
2018-12-07T15:32:19.785Z,9.00
2018-12-07T15:33:20.021Z,8.10
2018-12-07T15:34:19.772Z,7.00
2018-12-07T15:35:19.447Z,7.80
2018-12-07T15:36:19.606Z,7.70
2018-12-07T15:37:19.490Z,7.50
2018-12-07T15:38:19.429Z,7.70
2018-12-07T15:39:19.630Z,8.10
2018-12-07T15:40:19.580Z,8.00
2018-12-07T15:41:20.551Z,7.50
2018-12-07T15:42:19.600Z,7.70
2018-12-07T15:43:19.494Z,9.80
2018-12-07T15:44:19.516Z,8.90
2018-12-07T15:45:19.605Z,10.10
2018-12-07T15:46:19.631Z,7.80
2018-12-07T15:47:19.545Z,7.40
2018-12-07T15:48:19.589Z,6.80
2018-12-07T15:49:19.514Z,7.50
2018-12-07T15:50:25.050Z,8.40
2018-12-07T15:51:19.722Z,8.00
2018-12-07T15:52:19.614Z,8.40
2018-12-07T15:53:19.548Z,9.00
2018-12-07T15:54:19.655Z,9.40
2018-12-07T15:55:19.656Z,9.30
2018-12-07T15:56:19.601Z,8.80
2018-12-07T15:57:19.610Z,9.40
2018-12-07T15:58:19.714Z,9.10
2018-12-07T15:59:19.585Z,9.50
2018-12-07T16:00:19.685Z,9.40
2018-12-07T16:01:19.682Z,9.50
2018-12-07T16:02:19.687Z,8.70
2018-12-07T16:03:19.636Z,8.50
2018-12-07T16:04:19.785Z,8.40
2018-12-07T16:05:19.639Z,8.70
2018-12-07T16:06:19.662Z,8.70
2018-12-07T16:07:19.721Z,8.40
2018-12-07T16:08:24.969Z,8.30
2018-12-07T16:09:19.918Z,7.90
2018-12-07T16:10:19.792Z,7.60
2018-12-07T16:11:19.779Z,8.40
2018-12-07T16:12:19.746Z,7.90
2018-12-07T16:13:19.780Z,8.30
2018-12-07T16:14:19.914Z,9.50
2018-12-07T16:15:19.724Z,8.40
2018-12-07T16:16:19.807Z,8.00
2018-12-07T16:17:19.964Z,8.70
2018-12-07T16:18:19.876Z,8.40
2018-12-07T16:19:19.958Z,9.00
2018-12-07T16:20:19.877Z,9.40
2018-12-07T16:21:19.889Z,9.80
2018-12-07T16:22:19.987Z,8.20
2018-12-07T16:23:20.093Z,8.50
2018-12-07T16:24:20.089Z,8.50
2018-12-07T16:25:19.845Z,9.90
2018-12-07T16:26:19.982Z,8.90
2018-12-07T16:27:19.944Z,8.90
2018-12-07T16:28:20.028Z,8.60
2018-12-07T16:29:20.109Z,8.50
2018-12-07T16:30:19.992Z,9.00
2018-12-07T16:31:19.835Z,9.20
2018-12-07T16:32:19.894Z,9.60
2018-12-07T16:33:20.053Z,10.00
2018-12-07T16:34:19.896Z,11.60
2018-12-07T16:35:20.029Z,11.70
2018-12-07T16:36:19.954Z,11.10
2018-12-07T16:37:20.015Z,11.30
2018-12-07T16:38:20.045Z,11.80
2018-12-07T16:39:19.933Z,10.70
2018-12-07T16:40:19.984Z,9.70
2018-12-07T16:41:20.201Z,11.60
2018-12-07T16:42:19.957Z,11.00
2018-12-07T16:43:19.968Z,10.80
2018-12-07T16:44:20.031Z,11.00
2018-12-07T16:45:20.208Z,11.80
2018-12-07T16:46:19.998Z,11.50
2018-12-07T16:47:20.078Z,12.30
2018-12-07T16:48:19.986Z,11.40
2018-12-07T16:49:20.019Z,14.30
2018-12-07T16:50:19.971Z,14.90
2018-12-07T16:51:20.140Z,12.30
2018-12-07T16:52:20.022Z,11.70
2018-12-07T16:53:20.084Z,11.40
2018-12-07T16:54:20.100Z,11.30
2018-12-07T16:55:20.071Z,12.30
2018-12-07T16:56:20.052Z,11.90
2018-12-07T16:57:20.113Z,12.00
2018-12-07T16:58:20.074Z,11.50
2018-12-07T16:59:20.128Z,11.30
2018-12-07T17:00:20.280Z,11.50
2018-12-07T17:01:20.149Z,11.30
2018-12-07T17:02:20.152Z,12.00
2018-12-07T17:03:20.151Z,11.60
2018-12-07T17:04:20.157Z,11.30
2018-12-07T17:05:20.223Z,10.70
2018-12-07T17:06:20.468Z,11.30
2018-12-07T17:07:20.125Z,11.80
2018-12-07T17:08:20.374Z,12.20
2018-12-07T17:09:20.139Z,12.20
2018-12-07T17:10:20.358Z,11.90
2018-12-07T17:11:20.328Z,11.30
2018-12-07T17:12:20.337Z,12.10
2018-12-07T17:13:20.260Z,13.10
2018-12-07T17:14:20.209Z,18.10
2018-12-07T17:15:20.176Z,18.90
2018-12-07T17:16:20.187Z,17.20
2018-12-07T17:17:20.393Z,15.80
2018-12-07T17:18:20.312Z,13.50
2018-12-07T17:19:20.255Z,12.30
2018-12-07T17:20:20.227Z,13.00
2018-12-07T17:21:20.205Z,13.50
2018-12-07T17:22:20.237Z,12.40
2018-12-07T17:23:20.317Z,12.20
2018-12-07T17:24:20.346Z,12.50
2018-12-07T17:25:20.296Z,11.90
2018-12-07T17:26:20.401Z,12.60
2018-12-07T17:27:20.524Z,15.70
2018-12-07T17:28:20.461Z,13.50
2018-12-07T17:29:20.617Z,13.10
2018-12-07T17:30:20.310Z,13.20
2018-12-07T17:31:20.357Z,13.50
2018-12-07T17:32:20.483Z,12.90
2018-12-07T17:33:20.305Z,12.40
2018-12-07T17:34:20.538Z,11.90
2018-12-07T17:35:20.434Z,12.60
2018-12-07T17:36:20.363Z,14.00
2018-12-07T17:37:20.505Z,12.40
2018-12-07T17:38:20.438Z,12.20
2018-12-07T17:39:20.641Z,13.40
2018-12-07T17:40:20.558Z,13.10
2018-12-07T17:41:20.584Z,14.00
2018-12-07T17:42:20.431Z,13.30
2018-12-07T17:43:20.737Z,14.20
2018-12-07T17:44:20.385Z,12.90
2018-12-07T17:45:20.520Z,13.10
2018-12-07T17:46:20.627Z,14.10
2018-12-07T17:47:20.499Z,12.50
2018-12-07T17:48:20.428Z,13.50
2018-12-07T17:49:20.501Z,14.40
2018-12-07T17:50:22.312Z,14.20
2018-12-07T17:51:20.459Z,14.60
2018-12-07T17:52:20.735Z,14.60
2018-12-07T17:53:20.611Z,14.70
2018-12-07T17:54:20.574Z,13.10
2018-12-07T17:55:20.793Z,12.70
2018-12-07T17:56:20.720Z,14.80
2018-12-07T17:57:20.709Z,14.10
2018-12-07T17:58:20.538Z,14.40
2018-12-07T17:59:20.560Z,13.80
2018-12-07T18:00:20.587Z,15.40
2018-12-07T18:01:20.547Z,16.00
2018-12-07T18:02:20.554Z,21.30
2018-12-07T18:03:20.558Z,16.60
2018-12-07T18:04:20.610Z,14.30
2018-12-07T18:05:20.767Z,15.90
2018-12-07T18:06:20.759Z,14.30
2018-12-07T18:07:20.845Z,13.80
2018-12-07T18:08:20.652Z,15.10
2018-12-07T18:09:20.589Z,14.10
2018-12-07T18:10:20.586Z,12.70
2018-12-07T18:11:20.851Z,12.30
2018-12-07T18:12:20.610Z,13.10
2018-12-07T18:13:20.795Z,13.10
2018-12-07T18:14:20.702Z,11.20
2018-12-07T18:15:20.661Z,12.30
2018-12-07T18:16:20.891Z,12.50
2018-12-07T18:17:20.643Z,13.10
2018-12-07T18:18:20.741Z,13.20
2018-12-07T18:19:20.835Z,16.30
2018-12-07T18:20:20.718Z,15.90
2018-12-07T18:21:20.739Z,15.80
2018-12-07T18:22:20.685Z,15.40
2018-12-07T18:23:20.705Z,15.60
2018-12-07T18:24:20.781Z,18.00
2018-12-07T18:25:20.808Z,17.10
2018-12-07T18:26:20.981Z,13.80
2018-12-07T18:27:20.971Z,13.70
2018-12-07T18:28:20.735Z,13.10
2018-12-07T18:29:20.997Z,13.70
2018-12-07T18:30:20.777Z,13.10
2018-12-07T18:31:20.896Z,14.10
2018-12-07T18:32:20.996Z,19.80
2018-12-07T18:33:20.757Z,17.50
2018-12-07T18:34:20.937Z,14.40
2018-12-07T18:35:20.831Z,13.20
2018-12-07T18:36:20.961Z,13.50
2018-12-07T18:37:20.830Z,13.40
2018-12-07T18:38:20.818Z,13.30
2018-12-07T18:39:20.815Z,12.40
2018-12-07T18:40:20.836Z,12.90
2018-12-07T18:41:20.939Z,13.10
2018-12-07T18:42:20.836Z,12.30
2018-12-07T18:43:21.106Z,12.40
2018-12-07T18:44:21.105Z,12.00
2018-12-07T18:45:20.993Z,12.10
2018-12-07T18:46:20.979Z,12.40
2018-12-07T19:01:38.189Z,13.30
2018-12-07T19:02:38.062Z,11.80
2018-12-07T19:03:38.141Z,13.80
2018-12-07T19:04:38.056Z,13.50
2018-12-07T19:05:38.082Z,26.00
2018-12-07T19:06:38.000Z,21.30
2018-12-07T19:07:38.003Z,19.80
2018-12-07T19:08:38.104Z,15.80
2018-12-07T19:09:38.201Z,11.90
2018-12-07T19:10:38.153Z,12.50
2018-12-07T19:11:38.008Z,13.20
2018-12-07T19:12:38.199Z,13.70
2018-12-07T19:13:38.299Z,12.20
2018-12-07T19:14:38.048Z,11.90
2018-12-07T19:15:38.262Z,11.20
2018-12-07T19:16:38.176Z,10.80
2018-12-07T19:17:38.025Z,11.40
2018-12-07T19:18:38.764Z,11.00
2018-12-07T19:19:38.216Z,11.40
2018-12-07T19:20:38.051Z,10.90
2018-12-07T19:21:38.766Z,10.70
2018-12-07T19:22:38.162Z,11.90
2018-12-07T19:23:38.089Z,10.60
2018-12-07T19:24:38.736Z,10.70
2018-12-07T19:25:38.366Z,11.30
2018-12-07T19:26:38.472Z,12.40
2018-12-07T19:27:38.280Z,11.00
2018-12-07T19:28:38.176Z,11.60
2018-12-07T19:29:38.344Z,10.90
2018-12-07T19:30:38.287Z,10.30
2018-12-07T19:31:38.196Z,10.80
2018-12-07T19:32:38.212Z,10.90
2018-12-07T19:33:38.196Z,10.40
2018-12-07T19:34:38.277Z,10.30
2018-12-07T19:35:39.134Z,10.30
2018-12-07T19:36:38.449Z,10.90
2018-12-07T19:37:38.577Z,10.30
2018-12-07T19:38:38.616Z,10.70
2018-12-07T19:39:38.836Z,9.80
2018-12-07T19:40:38.530Z,10.40
2018-12-07T19:41:40.870Z,11.60
2018-12-07T19:42:38.379Z,11.90
2018-12-07T19:43:39.403Z,11.80
2018-12-07T19:44:38.707Z,10.50
2018-12-07T19:45:38.689Z,11.10
2018-12-07T19:46:38.462Z,10.70
2018-12-07T19:47:38.465Z,11.60
2018-12-07T19:48:38.506Z,10.90
2018-12-07T19:49:39.109Z,10.80
2018-12-07T19:50:38.429Z,13.10
2018-12-07T19:51:38.761Z,14.60
2018-12-07T19:52:38.577Z,12.00
2018-12-07T19:53:38.433Z,12.40
2018-12-07T19:54:38.594Z,12.40
2018-12-07T19:55:38.359Z,13.30
2018-12-07T19:56:38.716Z,14.20
2018-12-07T19:57:38.480Z,13.40
2018-12-07T19:58:38.405Z,12.70
2018-12-07T19:59:38.402Z,12.80
2018-12-07T20:00:38.310Z,12.90
2018-12-07T20:01:38.354Z,14.70
2018-12-07T20:02:38.320Z,14.10
2018-12-07T20:03:38.509Z,13.00
2018-12-07T20:04:38.498Z,12.40
2018-12-07T20:05:38.622Z,13.50
2018-12-07T20:06:38.451Z,12.90
2018-12-07T20:07:38.643Z,14.20
2018-12-07T20:08:38.522Z,13.90
2018-12-07T20:09:38.454Z,12.80
2018-12-07T20:10:38.696Z,12.90
2018-12-07T20:11:38.522Z,13.60
2018-12-07T20:12:38.514Z,12.30
2018-12-07T20:13:38.456Z,13.60
2018-12-07T20:14:38.544Z,15.10
2018-12-07T20:15:39.509Z,15.20
2018-12-07T20:16:38.478Z,14.30
2018-12-07T20:17:38.548Z,13.50